Winfield, Texas
Current Conditions -  °F | °C
As of 4:55 PM on Saturday 25 Oct 2014 (Local Time) from KOSA Reporting Station
Clear Clear  
Wind Chill: 85°   Ceiling: Unl
Heat Index: 85°   Visibility: 10mi
Dew Point: 61°   Wind: 5mph
Humidity: 44%   Direction: 270°W
Pressure: 30.08"   Gusts: NA
Location:  33.17°N, 95.11°W
Report Text: KOSA 252155Z AUTO 27004KT 10SM CLR 29/16 A3008 RMK AO1 T02930159
Loading
Personal Weather Stations






























Interactive Weather Map New forecast layout! Learn more

10-Day Weather Forecast

Advertisements
Track Severe Weather on mobile